createdAt,value
2023-06-13T00:04:46.564Z,11.40
2023-06-13T00:09:49.509Z,11.21
2023-06-13T00:14:53.062Z,11.36
2023-06-13T00:19:56.713Z,11.22
2023-06-13T00:24:59.469Z,11.15
2023-06-13T00:30:02.328Z,11.13
2023-06-13T00:35:09.972Z,11.16
2023-06-13T00:40:13.604Z,11.06
2023-06-13T00:45:23.944Z,11.07
2023-06-13T00:50:32.017Z,11.14
2023-06-13T00:55:34.758Z,11.24
2023-06-13T01:00:39.300Z,11.23
2023-06-13T01:05:44.099Z,12.58
2023-06-13T01:10:53.852Z,13.99
2023-06-13T01:16:37.059Z,15.74
2023-06-13T01:21:41.456Z,17.02
2023-06-13T01:26:56.262Z,19.07
2023-06-13T01:31:59.926Z,20.87
2023-06-13T01:37:03.912Z,21.60
2023-06-13T01:42:07.785Z,22.08
2023-06-13T01:47:16.631Z,23.35
2023-06-13T01:52:29.529Z,24.91
2023-06-13T01:57:40.778Z,26.65
2023-06-13T02:02:44.876Z,27.92
2023-06-13T02:07:47.527Z,28.87
2023-06-13T02:12:50.329Z,29.21
2023-06-13T02:17:53.325Z,30.57
2023-06-13T02:22:58.231Z,31.86
2023-06-13T02:28:00.901Z,31.10
2023-06-13T02:33:03.725Z,29.42
2023-06-13T02:38:08.009Z,30.13
2023-06-13T02:43:10.780Z,31.80
2023-06-13T02:48:13.718Z,32.39
2023-06-13T02:53:16.499Z,34.61
2023-06-13T02:58:19.116Z,34.90
2023-06-13T03:03:25.036Z,34.68
2023-06-13T03:08:30.652Z,33.86
2023-06-13T03:13:34.699Z,32.18
2023-06-13T03:18:38.055Z,27.72
2023-06-13T03:23:42.347Z,23.19
2023-06-13T03:28:45.099Z,21.82
2023-06-13T03:33:48.287Z,19.62
2023-06-13T03:38:52.221Z,19.06
2023-06-13T03:43:55.846Z,17.54
2023-06-13T03:48:58.730Z,17.58
2023-06-13T03:54:01.595Z,17.45
2023-06-13T03:59:04.961Z,16.93
2023-06-13T04:04:08.152Z,16.89
2023-06-13T04:09:12.274Z,16.96
2023-06-13T04:14:15.007Z,16.73
2023-06-13T04:19:19.666Z,16.82
2023-06-13T04:24:23.146Z,16.38
2023-06-13T04:29:26.513Z,16.99
2023-06-13T04:34:32.868Z,17.55
2023-06-13T04:39:38.210Z,17.19
2023-06-13T04:44:42.135Z,17.46
2023-06-13T04:49:46.314Z,17.36
2023-06-13T04:54:49.068Z,17.43
2023-06-13T04:59:51.717Z,17.60
2023-06-13T05:04:56.929Z,17.63
2023-06-13T05:09:59.733Z,17.94
2023-06-13T05:15:02.643Z,18.13
2023-06-13T05:20:08.036Z,17.91
2023-06-13T05:25:13.195Z,17.52
2023-06-13T05:30:16.292Z,17.85
2023-06-13T05:35:19.298Z,17.59
2023-06-13T05:40:22.063Z,17.86
2023-06-13T05:45:24.678Z,18.14
2023-06-13T05:50:27.304Z,18.42
2023-06-13T05:55:29.966Z,18.20
2023-06-13T06:00:37.275Z,18.34
2023-06-13T06:05:40.730Z,17.82
2023-06-13T06:10:43.478Z,17.80
2023-06-13T06:15:46.186Z,17.91
2023-06-13T06:20:49.173Z,18.32
2023-06-13T06:25:52.472Z,17.55
2023-06-13T06:30:55.221Z,17.28
2023-06-13T06:35:58.114Z,17.18
2023-06-13T06:41:00.861Z,17.69
2023-06-13T06:46:04.981Z,18.51
2023-06-13T06:51:08.495Z,18.29
2023-06-13T06:56:11.180Z,17.83
2023-06-13T07:01:17.533Z,17.82
2023-06-13T07:06:20.465Z,18.46
2023-06-13T07:11:23.088Z,18.40
2023-06-13T07:16:25.880Z,18.60
2023-06-13T07:21:28.549Z,18.89
2023-06-13T07:26:31.227Z,19.30
2023-06-13T07:31:33.950Z,19.54
2023-06-13T07:36:39.025Z,19.46
2023-06-13T07:41:41.729Z,19.44
2023-06-13T07:46:45.591Z,19.66
2023-06-13T07:51:48.230Z,19.91
2023-06-13T07:56:53.134Z,20.13
2023-06-13T08:01:55.964Z,19.80
2023-06-13T08:07:01.670Z,19.49
2023-06-13T08:12:04.713Z,19.15
2023-06-13T08:17:07.654Z,19.60
2023-06-13T08:22:10.384Z,20.11
2023-06-13T08:27:20.614Z,20.12
2023-06-13T08:32:23.351Z,19.81
2023-06-13T08:37:26.215Z,20.37
2023-06-13T08:42:29.977Z,20.76
2023-06-13T08:47:38.575Z,20.98
2023-06-13T08:52:43.406Z,21.13
2023-06-13T08:57:48.943Z,20.91
2023-06-13T09:02:53.688Z,20.60
2023-06-13T09:08:18.085Z,20.57
2023-06-13T09:13:24.678Z,20.88
2023-06-13T09:18:28.745Z,20.63
2023-06-13T09:23:33.454Z,20.21
2023-06-13T09:28:43.369Z,19.31
2023-06-13T09:33:46.759Z,19.76
2023-06-13T09:38:49.956Z,20.06
2023-06-13T09:43:56.070Z,20.34
2023-06-13T09:48:58.766Z,20.38
2023-06-13T09:54:04.409Z,20.29
2023-06-13T09:59:07.588Z,20.34
2023-06-13T10:04:11.124Z,20.52
2023-06-13T10:09:13.736Z,20.99
2023-06-13T10:14:23.445Z,20.54
2023-06-13T10:19:26.989Z,21.19
2023-06-13T10:24:30.464Z,21.42
2023-06-13T10:29:54.922Z,21.89
2023-06-13T10:35:25.451Z,21.10
2023-06-13T10:40:28.163Z,21.02
2023-06-13T10:45:31.795Z,21.17
2023-06-13T10:50:41.922Z,20.85
2023-06-13T10:55:44.636Z,21.05
2023-06-13T11:00:47.312Z,21.36
2023-06-13T11:05:51.411Z,21.02
2023-06-13T11:10:56.887Z,20.85
2023-06-13T11:16:18.882Z,21.32
2023-06-13T11:21:21.465Z,21.59
2023-06-13T11:26:25.063Z,21.95
2023-06-13T11:31:29.841Z,21.34
2023-06-13T11:36:35.405Z,21.63
2023-06-13T11:41:38.958Z,21.44
2023-06-13T11:46:44.601Z,21.51
2023-06-13T11:51:47.358Z,21.19
2023-06-13T11:56:54.505Z,21.73
2023-06-13T12:01:57.287Z,22.05
2023-06-13T12:07:05.309Z,21.89
2023-06-13T12:12:08.268Z,21.33
2023-06-13T12:17:11.151Z,21.56
2023-06-13T12:22:17.076Z,21.72
2023-06-13T12:27:19.864Z,21.83
2023-06-13T12:32:26.376Z,22.02
2023-06-13T12:37:35.642Z,22.47
2023-06-13T12:42:38.392Z,22.79
2023-06-13T12:47:41.020Z,21.94
2023-06-13T12:52:43.659Z,22.30
2023-06-13T12:57:46.307Z,22.65
2023-06-13T13:02:49.245Z,21.96
2023-06-13T13:07:52.883Z,22.18
2023-06-13T13:12:55.679Z,22.58
2023-06-13T13:17:58.316Z,22.45
2023-06-13T13:23:04.131Z,22.34
2023-06-13T13:28:06.952Z,22.32
2023-06-13T13:33:09.740Z,22.54
2023-06-13T13:38:12.534Z,22.45
2023-06-13T13:43:15.199Z,22.54
2023-06-13T13:48:18.177Z,22.29
2023-06-13T13:53:21.041Z,22.34
2023-06-13T13:58:24.331Z,22.59
2023-06-13T14:03:27.132Z,23.00
2023-06-13T14:08:29.912Z,22.69
2023-06-13T14:13:34.088Z,23.05
2023-06-13T14:18:39.704Z,22.90
2023-06-13T14:23:42.370Z,22.84
2023-06-13T14:28:45.142Z,22.95
2023-06-13T14:33:49.719Z,22.67
2023-06-13T14:38:52.552Z,22.85
2023-06-13T14:43:55.347Z,22.92
2023-06-13T14:48:57.999Z,22.87
2023-06-13T14:54:00.826Z,22.74
2023-06-13T14:59:03.519Z,22.41
2023-06-13T15:04:07.487Z,22.62
2023-06-13T15:09:12.988Z,22.59
2023-06-13T15:14:15.949Z,22.58
2023-06-13T15:19:18.797Z,22.52
2023-06-13T15:24:22.557Z,22.47
2023-06-13T15:29:25.768Z,22.38
2023-06-13T15:34:28.827Z,22.32
2023-06-13T15:39:31.554Z,22.25
2023-06-13T15:44:34.317Z,22.17
2023-06-13T15:49:37.026Z,22.12
2023-06-13T15:54:39.707Z,21.94
2023-06-13T15:59:42.609Z,21.82
2023-06-13T16:04:45.434Z,21.60
2023-06-13T16:09:48.116Z,21.35
2023-06-13T16:14:50.916Z,21.65
2023-06-13T16:19:53.608Z,21.74
2023-06-13T16:24:56.911Z,21.65
2023-06-13T16:29:59.547Z,21.25
2023-06-13T16:35:03.451Z,21.24
2023-06-13T16:40:08.005Z,21.54
2023-06-13T16:45:10.800Z,21.64
2023-06-13T16:50:13.913Z,21.66
2023-06-13T16:55:17.002Z,21.50
2023-06-13T17:00:20.028Z,21.72
2023-06-13T17:05:22.745Z,21.54
2023-06-13T17:10:25.536Z,21.30
2023-06-13T17:15:28.375Z,20.99
2023-06-13T17:20:35.800Z,20.82
2023-06-13T17:25:41.073Z,20.99
2023-06-13T17:30:43.963Z,20.81
2023-06-13T17:35:46.769Z,20.36
2023-06-13T17:40:49.566Z,19.98
2023-06-13T17:45:53.759Z,19.79
2023-06-13T17:51:03.238Z,19.71
2023-06-13T17:56:06.077Z,19.25
2023-06-13T18:01:08.793Z,18.83
2023-06-13T18:06:12.699Z,18.41
2023-06-13T18:11:16.280Z,18.38
2023-06-13T18:16:19.005Z,18.20
2023-06-13T18:21:21.983Z,17.96
2023-06-13T18:26:24.664Z,17.81
2023-06-13T18:31:27.495Z,17.63
2023-06-13T18:36:30.784Z,17.50
2023-06-13T18:41:33.603Z,17.29
2023-06-13T18:46:36.488Z,17.25
2023-06-13T18:51:39.255Z,17.08
2023-06-13T18:56:42.009Z,17.12
2023-06-13T19:01:46.474Z,16.99
2023-06-13T19:06:49.185Z,16.91
2023-06-13T19:11:52.162Z,16.75
2023-06-13T19:16:55.196Z,16.62
2023-06-13T19:21:58.004Z,16.60
2023-06-13T19:27:00.913Z,16.52
2023-06-13T19:32:04.104Z,16.44
2023-06-13T19:37:07.840Z,16.39
2023-06-13T19:42:10.821Z,16.36
2023-06-13T19:47:13.526Z,16.13
2023-06-13T19:52:16.986Z,16.03
2023-06-13T19:57:20.129Z,16.14
2023-06-13T20:02:22.912Z,16.03
2023-06-13T20:07:29.319Z,16.00
2023-06-13T20:12:32.196Z,15.94
2023-06-13T20:17:36.880Z,15.84
2023-06-13T20:22:41.375Z,15.84
2023-06-13T20:27:45.507Z,15.69
2023-06-13T20:32:48.368Z,15.60
2023-06-13T20:37:51.550Z,15.60
2023-06-13T20:42:54.620Z,15.44
2023-06-13T20:47:58.068Z,15.30
2023-06-13T20:53:00.931Z,15.18
2023-06-13T20:58:04.386Z,15.10
2023-06-13T21:03:07.291Z,15.00
2023-06-13T21:08:12.181Z,14.86
2023-06-13T21:13:15.030Z,14.80
2023-06-13T21:18:18.273Z,14.82
2023-06-13T21:23:21.211Z,14.64
2023-06-13T21:28:24.055Z,14.58
2023-06-13T21:33:29.489Z,14.63
2023-06-13T21:38:32.819Z,14.56
2023-06-13T21:43:35.609Z,14.39
2023-06-13T21:48:40.764Z,14.34
2023-06-13T21:53:43.502Z,14.27
2023-06-13T21:58:46.252Z,13.90
2023-06-13T22:03:49.037Z,13.78
2023-06-13T22:08:51.815Z,13.64
2023-06-13T22:13:55.627Z,13.20
2023-06-13T22:18:59.969Z,13.10
2023-06-13T22:24:02.805Z,13.07
2023-06-13T22:29:06.934Z,12.80
2023-06-13T22:34:10.386Z,12.77
2023-06-13T22:39:13.223Z,12.66
2023-06-13T22:44:16.062Z,12.46
2023-06-13T22:49:18.786Z,12.06
2023-06-13T22:54:22.050Z,12.07
2023-06-13T22:59:25.228Z,12.03
2023-06-13T23:04:31.970Z,11.90
2023-06-13T23:09:35.026Z,11.82
2023-06-13T23:14:37.667Z,11.76
2023-06-13T23:19:41.365Z,11.62
2023-06-13T23:24:44.275Z,11.47
2023-06-13T23:29:48.455Z,11.66
2023-06-13T23:34:51.223Z,11.65
2023-06-13T23:39:54.019Z,11.61
2023-06-13T23:44:57.224Z,11.29
2023-06-13T23:49:59.927Z,11.20
2023-06-13T23:55:02.915Z,10.92
